createdAt,value
2023-02-02T00:02:02.261Z,5.05
2023-02-02T00:04:28.592Z,5.04
2023-02-02T00:06:54.951Z,5.00
2023-02-02T00:09:21.331Z,4.98
2023-02-02T00:11:47.652Z,4.95
2023-02-02T00:14:14.033Z,4.96
2023-02-02T00:16:40.397Z,4.97
2023-02-02T00:19:06.722Z,4.98
2023-02-02T00:21:35.205Z,5.00
2023-02-02T00:24:01.567Z,5.03
2023-02-02T00:26:27.911Z,5.02
2023-02-02T00:28:54.369Z,5.04
2023-02-02T00:31:20.688Z,5.06
2023-02-02T00:33:47.062Z,5.03
2023-02-02T00:36:13.425Z,5.05
2023-02-02T00:38:39.817Z,5.05
2023-02-02T00:41:06.133Z,5.07
2023-02-02T00:43:32.486Z,5.09
2023-02-02T00:45:58.962Z,5.12
2023-02-02T00:48:25.234Z,5.09
2023-02-02T00:50:51.549Z,5.00
2023-02-02T00:53:17.930Z,4.88
2023-02-02T00:55:44.247Z,4.76
2023-02-02T00:58:10.624Z,4.61
2023-02-02T01:00:36.971Z,4.50
2023-02-02T01:03:03.349Z,4.46
2023-02-02T01:05:29.718Z,4.42
2023-02-02T01:07:56.091Z,4.42
2023-02-02T01:10:22.406Z,4.46
2023-02-02T01:12:48.828Z,4.39
2023-02-02T01:15:15.095Z,4.30
2023-02-02T01:17:41.443Z,4.26
2023-02-02T01:20:08.082Z,4.22
2023-02-02T01:22:34.429Z,4.23
2023-02-02T01:25:00.746Z,4.21
2023-02-02T01:27:27.166Z,4.19
2023-02-02T01:29:53.483Z,4.08
2023-02-02T01:32:19.868Z,4.08
2023-02-02T01:34:46.223Z,4.09
2023-02-02T01:37:12.596Z,4.10
2023-02-02T01:39:38.955Z,4.01
2023-02-02T01:42:05.282Z,3.94
2023-02-02T01:44:31.608Z,3.85
2023-02-02T01:46:57.986Z,3.83
2023-02-02T01:49:24.336Z,3.83
2023-02-02T01:51:50.668Z,3.78
2023-02-02T01:54:16.992Z,3.71
2023-02-02T01:56:43.389Z,3.70
2023-02-02T01:59:10.764Z,3.66
2023-02-02T02:01:37.151Z,3.64
2023-02-02T02:04:03.456Z,3.62
2023-02-02T02:06:29.840Z,3.54
2023-02-02T02:08:56.153Z,3.51
2023-02-02T02:11:22.528Z,3.44
2023-02-02T02:13:48.850Z,3.42
2023-02-02T02:16:15.198Z,3.43
2023-02-02T02:18:41.573Z,3.37
2023-02-02T02:21:07.950Z,3.36
2023-02-02T02:23:34.263Z,3.35
2023-02-02T02:26:00.616Z,3.30
2023-02-02T02:28:26.941Z,3.26
2023-02-02T02:30:53.381Z,3.25
2023-02-02T02:33:19.689Z,3.24
2023-02-02T02:35:46.076Z,3.25
2023-02-02T02:38:12.422Z,3.25
2023-02-02T02:40:38.801Z,3.25
2023-02-02T02:43:05.125Z,3.22
2023-02-02T02:45:31.492Z,3.22
2023-02-02T02:47:57.888Z,3.18
2023-02-02T02:50:24.256Z,3.13
2023-02-02T02:52:50.568Z,3.10
2023-02-02T02:55:16.991Z,3.09
2023-02-02T02:57:43.341Z,3.11
2023-02-02T03:00:09.670Z,3.10
2023-02-02T03:02:36.050Z,3.05
2023-02-02T03:05:02.336Z,3.05
2023-02-02T03:07:28.657Z,3.05
2023-02-02T03:09:55.033Z,3.03
2023-02-02T03:12:21.352Z,3.02
2023-02-02T03:14:47.763Z,3.02
2023-02-02T03:17:14.088Z,3.09
2023-02-02T03:19:40.459Z,3.15
2023-02-02T03:22:06.783Z,3.19
2023-02-02T03:24:33.242Z,3.22
2023-02-02T03:26:59.514Z,3.21
2023-02-02T03:29:25.900Z,3.19
2023-02-02T03:31:52.263Z,3.20
2023-02-02T03:34:18.628Z,3.18
2023-02-02T03:36:44.985Z,3.17
2023-02-02T03:39:11.325Z,3.15
2023-02-02T03:41:37.647Z,3.18
2023-02-02T03:44:04.107Z,3.20
2023-02-02T03:46:30.571Z,3.19
2023-02-02T03:48:56.831Z,3.10
2023-02-02T03:51:23.137Z,2.83
2023-02-02T03:53:49.558Z,2.45
2023-02-02T03:56:15.866Z,2.28
2023-02-02T03:58:42.256Z,2.18
2023-02-02T04:01:08.603Z,2.21
2023-02-02T04:03:34.999Z,2.20
2023-02-02T04:06:01.359Z,2.14
2023-02-02T04:08:27.686Z,2.20
2023-02-02T04:10:54.049Z,2.15
2023-02-02T04:13:20.613Z,2.11
2023-02-02T04:15:46.973Z,2.09
2023-02-02T04:18:13.347Z,2.15
2023-02-02T04:20:39.668Z,2.16
2023-02-02T04:23:06.017Z,2.20
2023-02-02T04:25:32.333Z,2.28
2023-02-02T04:27:58.755Z,2.36
2023-02-02T04:30:25.060Z,2.44
2023-02-02T04:32:51.442Z,2.49
2023-02-02T04:35:17.827Z,2.51
2023-02-02T04:37:44.205Z,2.51
2023-02-02T04:40:10.532Z,2.52
2023-02-02T04:42:36.937Z,2.51
2023-02-02T04:45:03.246Z,2.51
2023-02-02T04:47:29.587Z,2.51
2023-02-02T04:49:55.966Z,2.52
2023-02-02T04:52:22.320Z,2.53
2023-02-02T04:54:48.645Z,2.53
2023-02-02T04:57:15.071Z,2.52
2023-02-02T04:59:42.552Z,2.50
2023-02-02T05:02:07.813Z,2.47
2023-02-02T05:04:34.225Z,2.46
2023-02-02T05:07:00.505Z,2.37
2023-02-02T05:09:26.811Z,2.34
2023-02-02T05:11:53.223Z,2.32
2023-02-02T05:14:19.576Z,2.26
2023-02-02T05:16:46.053Z,2.23
2023-02-02T05:19:12.230Z,2.16
2023-02-02T05:21:38.587Z,2.15
2023-02-02T05:24:04.921Z,2.11
2023-02-02T05:26:31.745Z,2.04
2023-02-02T05:28:58.088Z,2.06
2023-02-02T05:31:24.444Z,2.12
2023-02-02T05:33:50.803Z,2.16
2023-02-02T05:36:17.145Z,2.15
2023-02-02T05:38:43.498Z,2.15
2023-02-02T05:41:09.815Z,2.16
2023-02-02T05:43:36.224Z,2.19
2023-02-02T05:46:02.670Z,2.18
2023-02-02T05:48:29.111Z,2.16
2023-02-02T05:50:55.481Z,2.15
2023-02-02T05:53:21.834Z,2.10
2023-02-02T05:55:48.234Z,2.17
2023-02-02T05:58:14.746Z,2.34
2023-02-02T06:00:41.086Z,2.56
2023-02-02T06:03:07.802Z,2.79
2023-02-02T06:05:34.180Z,2.87
2023-02-02T06:08:00.509Z,2.88
2023-02-02T06:10:26.899Z,2.76
2023-02-02T06:12:53.444Z,2.83
2023-02-02T06:15:19.831Z,2.97
2023-02-02T06:17:46.123Z,2.80
2023-02-02T06:20:12.609Z,2.82
2023-02-02T06:22:38.943Z,2.79
2023-02-02T06:25:05.253Z,2.96
2023-02-02T06:27:31.587Z,3.14
2023-02-02T06:29:57.933Z,3.12
2023-02-02T06:32:24.297Z,2.93
2023-02-02T06:34:50.761Z,2.93
2023-02-02T06:37:17.152Z,2.92
2023-02-02T06:39:43.503Z,2.96
2023-02-02T06:42:20.872Z,2.97
2023-02-02T06:44:36.193Z,2.93
2023-02-02T06:47:02.547Z,2.90
2023-02-02T06:49:28.940Z,2.95
2023-02-02T06:51:55.283Z,2.88
2023-02-02T06:54:21.633Z,2.83
2023-02-02T06:56:47.967Z,2.82
2023-02-02T06:59:14.319Z,2.82
2023-02-02T07:01:40.653Z,2.86
2023-02-02T07:04:07.195Z,2.84
2023-02-02T07:06:33.524Z,2.82
2023-02-02T07:09:02.520Z,2.88
2023-02-02T07:11:26.535Z,2.94
2023-02-02T07:13:52.883Z,2.85
2023-02-02T07:16:19.394Z,2.81
2023-02-02T07:18:45.599Z,2.87
2023-02-02T07:21:11.976Z,3.01
2023-02-02T07:23:38.469Z,3.10
2023-02-02T07:26:04.873Z,3.09
2023-02-02T07:28:31.133Z,3.02
2023-02-02T07:30:57.775Z,2.83
2023-02-02T07:33:26.389Z,2.81
2023-02-02T07:35:52.777Z,2.89
2023-02-02T07:38:19.222Z,3.19
2023-02-02T07:40:45.607Z,3.73
2023-02-02T07:43:11.922Z,4.34
2023-02-02T07:45:38.640Z,4.80
2023-02-02T07:48:04.628Z,4.62
2023-02-02T07:50:30.980Z,4.89
2023-02-02T07:52:57.317Z,5.74
2023-02-02T07:55:24.803Z,6.14
2023-02-02T07:57:51.171Z,6.74
2023-02-02T08:00:17.685Z,7.36
2023-02-02T08:02:44.123Z,7.67
2023-02-02T08:05:10.386Z,8.24
2023-02-02T08:07:37.736Z,8.33
2023-02-02T08:10:04.135Z,8.49
2023-02-02T08:12:30.457Z,8.67
2023-02-02T08:14:56.878Z,9.14
2023-02-02T08:17:23.401Z,9.49
2023-02-02T08:19:49.791Z,9.12
2023-02-02T08:22:18.839Z,8.81
2023-02-02T08:24:43.660Z,8.86
2023-02-02T08:27:10.073Z,8.35
2023-02-02T08:29:36.411Z,8.67
2023-02-02T08:32:02.773Z,9.44
2023-02-02T08:34:29.116Z,9.93
2023-02-02T08:36:55.456Z,10.02
2023-02-02T08:39:21.886Z,10.25
2023-02-02T08:41:48.207Z,10.32
2023-02-02T08:44:14.658Z,10.53
2023-02-02T08:46:41.137Z,10.71
2023-02-02T08:49:07.702Z,10.88
2023-02-02T08:51:34.243Z,11.29
2023-02-02T08:54:00.603Z,11.76
2023-02-02T08:56:26.996Z,11.22
2023-02-02T08:58:53.650Z,11.02
2023-02-02T09:01:20.031Z,11.45
2023-02-02T09:03:46.349Z,11.37
2023-02-02T09:06:12.666Z,11.06
2023-02-02T09:08:39.167Z,11.43
2023-02-02T09:11:05.494Z,12.27
2023-02-02T09:13:31.907Z,12.28
2023-02-02T09:15:58.298Z,12.11
2023-02-02T09:18:24.642Z,11.81
2023-02-02T09:20:50.986Z,11.56
2023-02-02T09:23:17.338Z,11.65
2023-02-02T09:25:43.749Z,11.90
2023-02-02T09:28:10.123Z,12.60
2023-02-02T09:30:36.486Z,13.11
2023-02-02T09:33:02.885Z,12.66
2023-02-02T09:35:29.233Z,12.09
2023-02-02T09:37:55.610Z,12.49
2023-02-02T09:40:21.977Z,13.24
2023-02-02T09:42:48.319Z,13.43
2023-02-02T09:45:14.687Z,13.79
2023-02-02T09:47:41.057Z,13.49
2023-02-02T09:50:07.423Z,13.61
2023-02-02T09:52:33.877Z,13.91
2023-02-02T09:55:00.186Z,14.56
2023-02-02T09:57:26.585Z,14.66
2023-02-02T09:59:53.033Z,15.04
2023-02-02T10:02:19.431Z,14.97
2023-02-02T10:04:46.021Z,15.11
2023-02-02T10:07:12.363Z,15.00
2023-02-02T10:09:38.719Z,15.01
2023-02-02T10:12:05.126Z,15.20
2023-02-02T10:14:31.512Z,14.56
2023-02-02T10:16:57.847Z,13.17
2023-02-02T10:19:24.212Z,12.16
2023-02-02T10:21:50.624Z,12.08
2023-02-02T10:24:16.948Z,12.30
2023-02-02T10:26:43.361Z,12.40
2023-02-02T10:29:09.770Z,11.87
2023-02-02T10:31:36.300Z,11.25
2023-02-02T10:34:02.481Z,11.56
2023-02-02T10:36:28.872Z,11.81
2023-02-02T10:38:55.221Z,12.22
2023-02-02T10:41:21.598Z,12.90
2023-02-02T10:43:47.944Z,12.86
2023-02-02T10:46:14.336Z,12.54
2023-02-02T10:48:40.725Z,12.57
2023-02-02T10:51:07.112Z,13.09
2023-02-02T10:53:33.409Z,13.30
2023-02-02T10:55:59.867Z,13.21
2023-02-02T10:58:26.211Z,13.66
2023-02-02T11:00:52.612Z,14.18
2023-02-02T11:03:18.955Z,14.22
2023-02-02T11:05:45.347Z,14.00
2023-02-02T11:08:11.662Z,13.56
2023-02-02T11:10:38.105Z,13.11
2023-02-02T11:13:04.467Z,13.59
2023-02-02T11:15:30.806Z,13.52
2023-02-02T11:17:57.170Z,13.57
2023-02-02T11:20:23.931Z,13.72
2023-02-02T11:22:49.891Z,13.66
2023-02-02T11:25:16.332Z,13.72
2023-02-02T11:27:42.633Z,13.78
2023-02-02T11:30:09.045Z,14.25
2023-02-02T11:32:35.477Z,14.42
2023-02-02T11:35:01.940Z,13.81
2023-02-02T11:37:28.308Z,14.01
2023-02-02T11:39:54.676Z,13.79
2023-02-02T11:42:21.043Z,13.35
2023-02-02T11:44:47.404Z,13.73
2023-02-02T11:47:13.825Z,14.21
2023-02-02T11:49:40.209Z,14.68
2023-02-02T11:52:07.249Z,15.08
2023-02-02T11:54:33.640Z,14.84
2023-02-02T11:57:00.004Z,14.22
2023-02-02T11:59:26.397Z,14.39
2023-02-02T12:01:52.751Z,14.32
2023-02-02T12:04:19.148Z,14.35
2023-02-02T12:06:45.441Z,14.36
2023-02-02T12:09:11.834Z,14.52
2023-02-02T12:11:38.155Z,14.44
2023-02-02T12:14:04.514Z,14.15
2023-02-02T12:16:30.939Z,13.69
2023-02-02T12:18:57.320Z,12.82
2023-02-02T12:21:23.730Z,12.20
2023-02-02T12:23:50.087Z,11.87
2023-02-02T12:26:16.433Z,11.58
2023-02-02T12:28:42.794Z,11.51
2023-02-02T12:31:09.166Z,11.43
2023-02-02T12:33:35.503Z,11.22
2023-02-02T12:36:01.884Z,10.75
2023-02-02T12:38:28.244Z,10.56
2023-02-02T12:40:54.642Z,10.55
2023-02-02T12:43:20.985Z,10.57
2023-02-02T12:45:47.364Z,10.68
2023-02-02T12:48:13.750Z,10.50
2023-02-02T12:50:40.303Z,10.44
2023-02-02T12:53:09.090Z,10.30
2023-02-02T12:55:35.552Z,10.28
2023-02-02T12:58:01.878Z,10.27
2023-02-02T13:00:28.590Z,10.28
2023-02-02T13:02:55.001Z,10.37
2023-02-02T13:05:21.325Z,10.36
2023-02-02T13:07:47.718Z,10.24
2023-02-02T13:10:14.243Z,10.10
2023-02-02T13:12:40.592Z,10.00
2023-02-02T13:15:06.935Z,10.13
2023-02-02T13:17:35.713Z,10.16
2023-02-02T13:20:03.205Z,10.07
2023-02-02T13:22:29.573Z,10.09
2023-02-02T13:24:55.918Z,10.01
2023-02-02T13:27:22.377Z,10.01
2023-02-02T13:29:49.756Z,9.98
2023-02-02T13:32:16.359Z,9.91
2023-02-02T13:34:42.754Z,9.95
2023-02-02T13:37:09.147Z,10.84
2023-02-02T13:39:35.529Z,11.47
2023-02-02T13:42:04.199Z,11.83
2023-02-02T13:44:30.568Z,12.04
2023-02-02T13:46:56.979Z,11.93
2023-02-02T13:49:23.334Z,11.52
2023-02-02T13:51:49.743Z,10.79
2023-02-02T13:54:16.026Z,10.27
2023-02-02T13:56:42.590Z,9.99
2023-02-02T13:59:08.953Z,9.77
2023-02-02T14:01:35.379Z,9.73
2023-02-02T14:04:01.710Z,9.81
2023-02-02T14:06:28.484Z,9.92
2023-02-02T14:08:54.953Z,9.84
2023-02-02T14:11:21.269Z,9.68
2023-02-02T14:13:47.639Z,9.48
2023-02-02T14:16:14.291Z,9.54
2023-02-02T14:18:40.632Z,9.60
2023-02-02T14:21:07.031Z,9.56
2023-02-02T14:23:33.354Z,9.42
2023-02-02T14:25:59.742Z,9.41
2023-02-02T14:28:26.103Z,9.14
2023-02-02T14:30:52.546Z,9.00
2023-02-02T14:33:18.888Z,8.71
2023-02-02T14:35:45.323Z,8.06
2023-02-02T14:38:11.727Z,7.26
2023-02-02T14:40:38.138Z,6.79
2023-02-02T14:43:04.493Z,6.66
2023-02-02T14:45:33.286Z,6.65
2023-02-02T14:48:00.743Z,6.74
2023-02-02T14:50:26.105Z,6.71
2023-02-02T14:52:52.459Z,6.63
2023-02-02T14:55:19.254Z,6.40
2023-02-02T14:57:45.640Z,5.91
2023-02-02T15:00:12.048Z,5.48
2023-02-02T15:02:38.519Z,5.18
2023-02-02T15:05:04.850Z,4.92
2023-02-02T15:07:31.317Z,4.75
2023-02-02T15:09:58.536Z,4.62
2023-02-02T15:12:24.865Z,4.60
2023-02-02T15:14:51.263Z,4.52
2023-02-02T15:17:17.564Z,4.51
2023-02-02T15:19:44.176Z,4.41
2023-02-02T15:22:10.557Z,4.30
2023-02-02T15:24:37.088Z,4.27
2023-02-02T15:27:03.380Z,4.09
2023-02-02T15:29:29.708Z,4.14
2023-02-02T15:31:56.152Z,4.13
2023-02-02T15:34:22.502Z,4.07
2023-02-02T15:36:48.817Z,4.11
2023-02-02T15:39:15.998Z,4.01
2023-02-02T15:41:42.355Z,3.73
2023-02-02T15:44:08.789Z,3.46
2023-02-02T15:46:35.156Z,3.51
2023-02-02T15:49:01.452Z,3.55
2023-02-02T15:51:27.803Z,3.54
2023-02-02T15:53:54.147Z,3.52
2023-02-02T15:56:20.467Z,3.51
2023-02-02T15:58:46.819Z,3.57
2023-02-02T16:01:13.225Z,3.58
2023-02-02T16:03:39.556Z,3.66
2023-02-02T16:06:06.123Z,3.65
2023-02-02T16:08:32.529Z,3.69
2023-02-02T16:10:58.878Z,3.64
2023-02-02T16:13:25.263Z,3.66
2023-02-02T16:15:51.937Z,3.64
2023-02-02T16:18:18.274Z,3.59
2023-02-02T16:20:44.806Z,3.59
2023-02-02T16:23:11.252Z,3.55
2023-02-02T16:25:37.774Z,3.49
2023-02-02T16:28:04.220Z,3.49
2023-02-02T16:30:30.554Z,3.55
2023-02-02T16:32:56.952Z,3.58
2023-02-02T16:35:23.472Z,3.56
2023-02-02T16:37:49.690Z,3.47
2023-02-02T16:40:16.059Z,3.47
2023-02-02T16:42:42.398Z,3.49
2023-02-02T16:45:08.941Z,3.50
2023-02-02T16:47:35.374Z,3.50
2023-02-02T16:50:01.721Z,3.57
2023-02-02T16:52:28.119Z,3.56
2023-02-02T16:54:54.495Z,3.56
2023-02-02T16:57:20.886Z,3.54
2023-02-02T16:59:47.434Z,3.51
2023-02-02T17:02:13.811Z,3.58
2023-02-02T17:04:42.496Z,3.60
2023-02-02T17:07:08.888Z,3.58
2023-02-02T17:09:36.254Z,3.52
2023-02-02T17:12:01.613Z,3.54
2023-02-02T17:14:27.988Z,3.59
2023-02-02T17:16:54.501Z,3.64
2023-02-02T17:19:21.530Z,3.62
2023-02-02T17:21:47.929Z,3.61
2023-02-02T17:24:14.289Z,3.69
2023-02-02T17:26:40.849Z,3.67
2023-02-02T17:29:07.207Z,3.64
2023-02-02T17:31:33.682Z,3.60
2023-02-02T17:34:00.051Z,3.61
2023-02-02T17:36:26.409Z,3.60
2023-02-02T17:38:52.790Z,3.61
2023-02-02T17:41:19.184Z,3.55
2023-02-02T17:43:45.545Z,3.57
2023-02-02T17:46:12.014Z,3.58
2023-02-02T17:48:38.309Z,3.60
2023-02-02T17:51:04.723Z,3.59
2023-02-02T17:53:33.183Z,3.56
2023-02-02T17:55:57.425Z,3.56
2023-02-02T17:58:23.845Z,3.56
2023-02-02T18:00:50.198Z,3.61
2023-02-02T18:03:16.605Z,3.65
2023-02-02T18:05:43.861Z,3.70
2023-02-02T18:08:09.282Z,3.74
2023-02-02T18:10:35.657Z,3.71
2023-02-02T18:13:02.118Z,3.69
2023-02-02T18:15:28.580Z,3.65
2023-02-02T18:17:54.841Z,3.75
2023-02-02T18:20:21.337Z,3.70
2023-02-02T18:22:47.719Z,3.73
2023-02-02T18:25:14.080Z,3.73
2023-02-02T18:27:40.798Z,3.73
2023-02-02T18:30:07.090Z,3.75
2023-02-02T18:32:33.426Z,3.77
2023-02-02T18:34:59.824Z,3.77
2023-02-02T18:37:26.155Z,3.74
2023-02-02T18:39:52.531Z,3.77
2023-02-02T18:42:18.931Z,3.74
2023-02-02T18:44:45.262Z,3.74
2023-02-02T18:47:11.642Z,3.69
2023-02-02T18:49:38.122Z,3.68
2023-02-02T18:52:04.424Z,3.70
2023-02-02T18:54:30.783Z,3.73
2023-02-02T18:56:57.166Z,3.76
2023-02-02T18:59:23.524Z,3.72
2023-02-02T19:01:49.918Z,3.72
2023-02-02T19:04:16.316Z,3.73
2023-02-02T19:06:42.632Z,3.81
2023-02-02T19:09:09.000Z,3.81
2023-02-02T19:11:35.480Z,3.89
2023-02-02T19:14:01.872Z,3.89
2023-02-02T19:16:29.483Z,3.95
2023-02-02T19:18:55.825Z,4.02
2023-02-02T19:21:22.166Z,3.99
2023-02-02T19:23:50.474Z,3.98
2023-02-02T19:26:16.870Z,3.97
2023-02-02T19:28:43.190Z,3.91
2023-02-02T19:31:09.649Z,3.92
2023-02-02T19:33:36.047Z,3.92
2023-02-02T19:36:02.439Z,3.90
2023-02-02T19:38:28.755Z,3.79
2023-02-02T19:40:55.126Z,3.81
2023-02-02T19:43:21.463Z,3.75
2023-02-02T19:45:47.856Z,3.76
2023-02-02T19:48:14.222Z,3.76
2023-02-02T19:50:40.568Z,3.77
2023-02-02T19:53:06.939Z,3.74
2023-02-02T19:55:33.323Z,3.71
2023-02-02T19:57:59.680Z,3.65
2023-02-02T20:00:26.873Z,3.63
2023-02-02T20:02:52.874Z,3.63
2023-02-02T20:05:19.240Z,3.63
2023-02-02T20:07:45.617Z,3.63
2023-02-02T20:10:11.993Z,3.62
2023-02-02T20:12:38.384Z,3.62
2023-02-02T20:15:06.871Z,3.63
2023-02-02T20:17:33.238Z,3.59
2023-02-02T20:19:59.604Z,3.60
2023-02-02T20:22:26.027Z,3.57
2023-02-02T20:24:52.417Z,3.53
2023-02-02T20:27:18.743Z,3.53
2023-02-02T20:29:45.113Z,3.59
2023-02-02T20:32:13.657Z,3.63
2023-02-02T20:34:39.985Z,3.60
2023-02-02T20:37:06.368Z,3.64
2023-02-02T20:39:32.800Z,3.66
2023-02-02T20:41:59.129Z,3.69
2023-02-02T20:44:25.512Z,3.71
2023-02-02T20:46:51.872Z,3.69
2023-02-02T20:49:18.212Z,3.65
2023-02-02T20:51:44.888Z,3.58
2023-02-02T20:54:11.257Z,3.58
2023-02-02T20:56:37.638Z,3.57
2023-02-02T20:59:06.385Z,3.56
2023-02-02T21:01:30.448Z,3.53
2023-02-02T21:03:56.782Z,3.52
2023-02-02T21:06:23.114Z,3.54
2023-02-02T21:08:49.482Z,3.52
2023-02-02T21:11:15.855Z,3.52
2023-02-02T21:13:42.249Z,3.50
2023-02-02T21:16:08.598Z,3.48
2023-02-02T21:18:35.025Z,3.48
2023-02-02T21:21:01.396Z,3.47
2023-02-02T21:23:27.735Z,3.51
2023-02-02T21:25:54.120Z,3.48
2023-02-02T21:28:20.492Z,3.44
2023-02-02T21:30:46.963Z,3.44
2023-02-02T21:33:13.211Z,3.43
2023-02-02T21:35:39.576Z,3.43
2023-02-02T21:38:05.945Z,3.44
2023-02-02T21:40:32.297Z,3.43
2023-02-02T21:42:58.638Z,3.45
2023-02-02T21:45:24.977Z,3.47
2023-02-02T21:47:51.732Z,3.52
2023-02-02T21:50:18.118Z,3.53
2023-02-02T21:52:44.495Z,3.53
2023-02-02T21:55:10.898Z,3.61
2023-02-02T21:57:37.258Z,3.56
2023-02-02T22:00:03.587Z,3.59
2023-02-02T22:02:30.081Z,3.62
2023-02-02T22:04:56.441Z,3.64
2023-02-02T22:07:22.790Z,3.71
2023-02-02T22:09:49.113Z,3.81
2023-02-02T22:12:15.621Z,3.79
2023-02-02T22:14:41.965Z,3.78
2023-02-02T22:17:08.266Z,3.75
2023-02-02T22:19:34.638Z,3.77
2023-02-02T22:22:01.013Z,3.78
2023-02-02T22:24:27.643Z,3.81
2023-02-02T22:26:54.015Z,3.72
2023-02-02T22:29:20.367Z,3.74
2023-02-02T22:31:46.830Z,3.73
2023-02-02T22:34:13.076Z,3.70
2023-02-02T22:36:39.472Z,3.69
2023-02-02T22:39:05.785Z,3.75
2023-02-02T22:41:32.166Z,3.75
2023-02-02T22:43:58.528Z,3.74
2023-02-02T22:46:24.973Z,3.73
2023-02-02T22:48:51.273Z,3.71
2023-02-02T22:51:17.629Z,3.73
2023-02-02T22:53:43.986Z,3.74
2023-02-02T22:56:10.356Z,3.80
2023-02-02T22:58:36.760Z,3.82
2023-02-02T23:01:03.146Z,3.81
2023-02-02T23:03:29.729Z,3.80
2023-02-02T23:05:55.978Z,3.79
2023-02-02T23:08:22.533Z,3.76
2023-02-02T23:10:48.837Z,3.75
2023-02-02T23:13:15.188Z,3.80
2023-02-02T23:15:41.564Z,3.86
2023-02-02T23:18:07.903Z,3.80
2023-02-02T23:20:34.280Z,3.85
2023-02-02T23:23:00.596Z,3.83
2023-02-02T23:25:26.951Z,3.81
2023-02-02T23:27:53.428Z,3.82
2023-02-02T23:30:19.674Z,3.85
2023-02-02T23:32:46.059Z,3.84
2023-02-02T23:35:12.625Z,3.83
2023-02-02T23:37:38.964Z,3.85
2023-02-02T23:40:05.285Z,3.88
2023-02-02T23:42:31.673Z,3.88
2023-02-02T23:44:58.061Z,3.82
2023-02-02T23:47:24.388Z,3.84
2023-02-02T23:49:50.761Z,3.82
2023-02-02T23:52:17.080Z,3.83
2023-02-02T23:54:43.461Z,3.79
2023-02-02T23:57:09.768Z,3.75
2023-02-02T23:59:36.215Z,3.75
